ESKM

Mora Airport

Sweden
METAR ESKM 242050Z AUTO 30009KT 9999 NCD 04/M02 Q1021
Observed Flight Rules
Sep-24 @ 20:50 UTC (33 minutes ago) Visual Flight Rules
Wind Visibility Clouds
300° at 9 knots 10,000+ meters
  • Clear skies
Temperatures Readings
Current 4°C / 39°F
Dewpoint -2°C / 28°F
Humidity 65%
Altimeter 30.15" Hg
Pressure 1021 hPa
Elevation 193
METAR ESKM 242050Z AUTO 30009KT 9999 NCD 04/M02 Q1021
Observed Flight Rules
Sep-24 @ 20:50 UTC
(33 minutes ago)
VFR
Wind Visibility
300° at 9 knots 10,000+ meters
Clouds
  • Clear skies
Temperature Dewpoint
4°C / 39°F -2°C / 28°F
Humidity Altimeter Pressure
65% 30.15" Hg 1021 hPa